Market Drayton, United Kingdom
Current Conditions -  °F | °C
As of 7:50 PM on Monday 26 Jan 2015 (Local Time) from EGOS Reporting Station
Broken Clouds Broken Clouds  
Wind Chill: 34°   Ceiling: 3800
Heat Index: 39°   Visibility: 6mi
Dew Point: 34°   Wind: 8mph
Humidity: 81%   Direction: 280°W
Pressure: 30.33"   Gusts: NA
Location:  52.91°N, 2.49°W
Report Text: EGOS 261950Z 28007KT 9999 BKN038 04/01 Q1027 BLU NOSIG
Loading
Personal Weather Stations






























Interactive Weather Map New forecast layout! Learn more

10-Day Weather Forecast

Advertisements
Track Severe Weather on mobile